createdAt,value
2022-10-01T00:00:36.963Z,6.55
2022-10-01T00:03:03.847Z,6.47
2022-10-01T00:05:30.659Z,5.88
2022-10-01T00:07:57.430Z,5.72
2022-10-01T00:10:24.122Z,6.35
2022-10-01T00:12:50.894Z,6.13
2022-10-01T00:15:21.712Z,6.32
2022-10-01T00:17:48.522Z,6.28
2022-10-01T00:20:15.075Z,6.35
2022-10-01T00:22:41.946Z,6.45
2022-10-01T00:25:08.802Z,5.03
2022-10-01T00:27:35.937Z,5.45
2022-10-01T00:30:04.917Z,5.70
2022-10-01T00:32:32.341Z,5.05
2022-10-01T00:35:00.595Z,6.05
2022-10-01T00:37:27.413Z,6.55
2022-10-01T00:39:54.149Z,6.30
2022-10-01T00:42:23.853Z,6.15
2022-10-01T00:44:51.186Z,5.75
2022-10-01T00:47:22.347Z,6.60
2022-10-01T00:49:57.453Z,6.22
2022-10-01T00:52:30.394Z,6.10
2022-10-01T00:55:03.430Z,5.97
2022-10-01T00:57:31.165Z,7.50
2022-10-01T01:00:01.398Z,6.13
2022-10-01T01:02:28.422Z,7.50
2022-10-01T01:04:55.388Z,7.22
2022-10-01T01:07:22.855Z,8.25
2022-10-01T01:09:53.273Z,8.07
2022-10-01T01:12:19.961Z,6.88
2022-10-01T01:14:58.701Z,6.68
2022-10-01T01:17:39.629Z,6.68
2022-10-01T01:20:29.850Z,5.45
2022-10-01T01:23:16.515Z,5.95
2022-10-01T01:26:05.675Z,6.03
2022-10-01T01:28:39.169Z,6.00
2022-10-01T01:31:10.306Z,6.50
2022-10-01T01:33:40.074Z,5.97
2022-10-01T01:36:16.242Z,6.43
2022-10-01T01:38:47.562Z,6.28
2022-10-01T01:41:16.141Z,6.00
2022-10-01T01:43:47.132Z,6.85
2022-10-01T01:46:17.732Z,6.95
2022-10-01T01:48:49.181Z,6.00
2022-10-01T01:51:19.861Z,6.38
2022-10-01T01:53:46.660Z,6.40
2022-10-01T01:56:14.180Z,6.18
2022-10-01T01:58:41.092Z,5.40
2022-10-01T02:01:07.981Z,5.30
2022-10-01T02:03:35.346Z,6.40
2022-10-01T02:06:02.093Z,5.28
2022-10-01T02:08:35.201Z,5.85
2022-10-01T02:11:19.628Z,5.70
2022-10-01T02:13:50.445Z,5.53
2022-10-01T02:16:46.701Z,6.22
2022-10-01T02:19:47.943Z,7.15
2022-10-01T02:22:22.736Z,5.77
2022-10-01T02:24:57.121Z,7.25
2022-10-01T02:27:40.044Z,5.85
2022-10-01T02:30:09.629Z,5.65
2022-10-01T02:32:39.336Z,5.65
2022-10-01T02:35:10.028Z,5.70
2022-10-01T02:37:38.424Z,7.93
2022-10-01T02:40:11.720Z,7.25
2022-10-01T02:42:40.161Z,5.88
2022-10-01T02:45:09.128Z,7.25
2022-10-01T02:47:43.631Z,6.50
2022-10-01T02:50:12.770Z,7.15
2022-10-01T02:52:54.337Z,6.55
2022-10-01T02:55:28.636Z,5.75
2022-10-01T02:57:56.948Z,5.55
2022-10-01T03:00:26.890Z,5.70
2022-10-01T03:02:54.214Z,7.07
2022-10-01T03:05:21.692Z,7.78
2022-10-01T03:07:48.649Z,5.63
2022-10-01T03:10:16.133Z,6.30
2022-10-01T03:12:45.259Z,6.15
2022-10-01T03:15:14.526Z,6.78
2022-10-01T03:17:41.288Z,5.87
2022-10-01T03:20:09.116Z,5.45
2022-10-01T03:22:36.200Z,6.13
2022-10-01T03:25:03.279Z,5.90
2022-10-01T03:27:29.977Z,6.78
2022-10-01T03:29:56.796Z,6.63
2022-10-01T03:32:23.412Z,6.55
2022-10-01T03:34:50.047Z,6.90
2022-10-01T03:37:16.707Z,5.53
2022-10-01T03:39:43.369Z,6.32
2022-10-01T03:42:10.061Z,6.03
2022-10-01T03:44:37.152Z,7.80
2022-10-01T03:47:03.988Z,7.05
2022-10-01T03:49:30.736Z,6.75
2022-10-01T03:51:57.404Z,7.47
2022-10-01T03:54:25.194Z,6.43
2022-10-01T03:56:52.272Z,7.15
2022-10-01T03:59:19.955Z,6.45
2022-10-01T04:01:46.652Z,6.05
2022-10-01T04:04:13.544Z,7.25
2022-10-01T04:06:40.372Z,8.25
2022-10-01T04:09:09.559Z,6.78
2022-10-01T04:11:37.234Z,7.20
2022-10-01T04:14:03.988Z,7.13
2022-10-01T04:16:30.701Z,6.75
2022-10-01T04:18:57.392Z,7.00
2022-10-01T04:21:24.004Z,7.93
2022-10-01T04:23:50.657Z,6.60
2022-10-01T04:26:19.089Z,7.82
2022-10-01T04:28:46.743Z,6.60
2022-10-01T04:31:34.411Z,6.45
2022-10-01T04:34:01.792Z,7.00
2022-10-01T04:36:28.552Z,8.00
2022-10-01T04:39:00.832Z,8.02
2022-10-01T04:41:30.633Z,8.18
2022-10-01T04:43:59.267Z,9.00
2022-10-01T04:46:26.182Z,8.13
2022-10-01T04:48:52.937Z,7.30
2022-10-01T04:51:19.588Z,7.70
2022-10-01T04:53:46.223Z,6.43
2022-10-01T04:56:12.836Z,7.18
2022-10-01T04:58:40.207Z,7.63
2022-10-01T05:01:07.280Z,7.03
2022-10-01T05:03:34.463Z,7.25
2022-10-01T05:06:01.157Z,7.65
2022-10-01T05:08:27.847Z,7.50
2022-10-01T05:10:54.599Z,13.10
2022-10-01T05:13:21.304Z,19.80
2022-10-01T05:15:52.085Z,16.42
2022-10-01T05:18:19.221Z,15.57
2022-10-01T05:20:46.220Z,15.80
2022-10-01T05:23:12.921Z,15.85
2022-10-01T05:25:39.857Z,13.93
2022-10-01T05:28:06.633Z,11.68
2022-10-01T05:30:34.244Z,10.23
2022-10-01T05:33:03.810Z,9.70
2022-10-01T05:35:30.771Z,9.40
2022-10-01T05:37:59.639Z,9.63
2022-10-01T05:40:28.542Z,8.18
2022-10-01T05:42:57.019Z,8.90
2022-10-01T05:45:24.374Z,8.93
2022-10-01T05:48:00.289Z,9.80
2022-10-01T05:50:31.241Z,11.88
2022-10-01T05:52:59.248Z,10.60
2022-10-01T05:55:26.667Z,14.43
2022-10-01T05:57:55.214Z,12.82
2022-10-01T06:00:22.889Z,13.77
2022-10-01T06:02:52.344Z,14.45
2022-10-01T06:05:20.179Z,11.90
2022-10-01T06:07:47.727Z,9.70
2022-10-01T06:10:14.471Z,19.58
2022-10-01T06:12:42.063Z,42.17
2022-10-01T06:15:09.443Z,18.35
2022-10-01T06:17:36.140Z,17.38
2022-10-01T06:20:02.818Z,13.85
2022-10-01T06:22:29.454Z,13.35
2022-10-01T06:24:56.840Z,14.98
2022-10-01T06:27:23.505Z,17.17
2022-10-01T06:29:50.151Z,17.45
2022-10-01T06:32:19.677Z,27.70
2022-10-01T06:34:46.439Z,28.55
2022-10-01T06:37:13.173Z,19.73
2022-10-01T06:39:39.882Z,16.67
2022-10-01T06:42:06.558Z,16.15
2022-10-01T06:44:33.206Z,17.90
2022-10-01T06:46:59.877Z,15.90
2022-10-01T06:49:26.918Z,17.10
2022-10-01T06:52:13.474Z,17.08
2022-10-01T06:54:40.125Z,16.77
2022-10-01T06:57:07.026Z,18.05
2022-10-01T06:59:36.290Z,16.85
2022-10-01T07:02:04.946Z,20.40
2022-10-01T07:04:31.667Z,18.85
2022-10-01T07:06:58.350Z,20.45
2022-10-01T07:09:25.769Z,23.35
2022-10-01T07:11:53.154Z,21.65
2022-10-01T07:14:21.530Z,27.63
2022-10-01T07:16:48.278Z,16.70
2022-10-01T07:19:14.906Z,27.50
2022-10-01T07:21:41.510Z,69.10
2022-10-01T07:24:08.242Z,20.98
2022-10-01T07:26:34.950Z,19.35
2022-10-01T07:29:01.804Z,23.23
2022-10-01T07:31:28.769Z,17.38
2022-10-01T07:33:58.454Z,14.90
2022-10-01T07:36:25.002Z,14.43
2022-10-01T07:38:51.874Z,13.48
2022-10-01T07:41:18.517Z,11.77
2022-10-01T07:43:46.762Z,13.30
2022-10-01T07:46:13.482Z,14.67
2022-10-01T07:48:41.166Z,14.60
2022-10-01T07:51:07.954Z,13.77
2022-10-01T07:53:34.557Z,14.90
2022-10-01T07:56:02.120Z,12.50
2022-10-01T07:58:28.826Z,11.75
2022-10-01T08:00:58.454Z,13.10
2022-10-01T08:03:25.483Z,14.00
2022-10-01T08:05:53.606Z,12.50
2022-10-01T08:08:20.255Z,11.10
2022-10-01T08:10:47.048Z,15.07
2022-10-01T08:13:14.840Z,13.85
2022-10-01T08:15:45.144Z,12.05
2022-10-01T08:18:12.539Z,11.18
2022-10-01T08:20:40.045Z,10.60
2022-10-01T08:23:10.312Z,10.90
2022-10-01T08:25:37.596Z,10.63
2022-10-01T08:28:04.727Z,9.80
2022-10-01T08:30:31.771Z,9.10
2022-10-01T08:33:00.371Z,0.85
2022-10-01T08:35:28.510Z,0.40
2022-10-01T08:37:56.558Z,0.38
2022-10-01T08:40:24.008Z,0.38
2022-10-01T08:42:56.109Z,0.30
2022-10-01T08:45:27.445Z,0.30
2022-10-01T08:48:30.932Z,0.30
2022-10-01T08:51:11.727Z,0.20
2022-10-01T08:53:53.138Z,0.93
2022-10-01T08:56:30.669Z,0.10
2022-10-01T08:59:00.163Z,0.32
2022-10-01T09:01:27.339Z,0.52
2022-10-01T09:03:54.397Z,0.50
2022-10-01T09:06:25.337Z,0.22
2022-10-01T09:09:12.964Z,0.20
2022-10-01T09:11:42.986Z,0.10
2022-10-01T09:14:32.804Z,0.60
2022-10-01T09:17:23.416Z,0.38
2022-10-01T09:19:54.434Z,0.35
2022-10-01T09:22:43.081Z,0.30
2022-10-01T09:25:12.685Z,0.10
2022-10-01T09:27:39.873Z,0.43
2022-10-01T09:30:12.205Z,0.30
2022-10-01T09:32:44.578Z,0.20
2022-10-01T09:35:20.886Z,0.40
2022-10-01T09:38:03.320Z,0.37
2022-10-01T09:40:35.643Z,0.10
2022-10-01T09:43:05.100Z,0.20
2022-10-01T09:45:31.896Z,0.40
2022-10-01T09:48:05.477Z,1.02
2022-10-01T09:50:40.962Z,0.30
2022-10-01T09:53:16.473Z,0.20
2022-10-01T09:55:45.564Z,0.50
2022-10-01T09:58:14.701Z,0.55
2022-10-01T10:00:42.450Z,0.83
2022-10-01T10:03:09.380Z,0.40
2022-10-01T10:05:51.812Z,0.25
2022-10-01T10:08:36.874Z,0.43
2022-10-01T10:11:08.321Z,0.70
2022-10-01T10:13:39.389Z,0.65
2022-10-01T10:16:10.532Z,0.60
2022-10-01T10:18:39.596Z,0.90
2022-10-01T10:21:15.052Z,0.40
2022-10-01T10:23:52.224Z,0.22
2022-10-01T10:26:21.931Z,0.30
2022-10-01T10:28:48.778Z,0.47
2022-10-01T10:31:20.117Z,0.13
2022-10-01T10:33:51.111Z,0.32
2022-10-01T10:36:19.727Z,0.13
2022-10-01T10:38:49.883Z,0.73
2022-10-01T10:41:19.709Z,0.47
2022-10-01T10:43:49.044Z,0.20
2022-10-01T10:46:34.475Z,0.20
2022-10-01T10:49:05.106Z,0.20
2022-10-01T10:51:54.275Z,0.65
2022-10-01T10:54:25.635Z,0.50
2022-10-01T10:57:00.671Z,0.50
2022-10-01T10:59:27.501Z,0.50
2022-10-01T11:01:54.509Z,0.20
2022-10-01T11:04:44.159Z,0.43
2022-10-01T11:07:13.404Z,0.30
2022-10-01T11:10:05.874Z,0.40
2022-10-01T11:12:33.672Z,0.68
2022-10-01T11:15:27.325Z,0.20
2022-10-01T11:18:19.095Z,0.10
2022-10-01T11:21:03.207Z,0.23
2022-10-01T11:24:00.235Z,0.22
2022-10-01T11:26:44.736Z,0.15
2022-10-01T11:29:39.739Z,0.22
2022-10-01T11:32:19.317Z,0.10
2022-10-01T11:35:13.677Z,0.40
2022-10-01T11:37:41.451Z,0.10
2022-10-01T11:40:29.096Z,0.30
2022-10-01T11:43:02.886Z,0.50
2022-10-01T11:45:35.235Z,0.10
2022-10-01T11:48:08.127Z,0.20
2022-10-01T11:50:40.707Z,0.10
2022-10-01T11:53:32.399Z,0.00
2022-10-01T11:56:26.462Z,0.10
2022-10-01T11:58:57.258Z,0.45
2022-10-01T12:01:23.927Z,0.20
2022-10-01T12:03:53.844Z,0.10
2022-10-01T12:06:33.631Z,0.47
2022-10-01T12:09:08.129Z,0.53
2022-10-01T12:11:43.866Z,1.45
2022-10-01T12:14:16.747Z,1.70
2022-10-01T12:16:54.829Z,1.92
2022-10-01T12:19:24.931Z,1.52
2022-10-01T12:22:02.303Z,1.80
2022-10-01T12:24:32.914Z,1.80
2022-10-01T12:27:16.868Z,1.95
2022-10-01T12:30:03.130Z,1.80
2022-10-01T12:32:52.999Z,1.90
2022-10-01T12:35:39.487Z,3.30
2022-10-01T12:38:26.084Z,3.20
2022-10-01T12:41:19.506Z,1.90
2022-10-01T12:44:26.461Z,1.92
2022-10-01T12:47:08.522Z,1.60
2022-10-01T12:49:41.106Z,1.52
2022-10-01T12:52:23.622Z,1.50
2022-10-01T12:55:30.719Z,1.50
2022-10-01T12:58:03.134Z,1.92
2022-10-01T13:00:40.892Z,2.00
2022-10-01T13:03:27.877Z,1.85
2022-10-01T13:06:02.379Z,1.90
2022-10-01T13:08:38.898Z,2.10
2022-10-01T13:11:12.814Z,2.20
2022-10-01T13:13:40.102Z,2.00
2022-10-01T13:16:11.071Z,2.50
2022-10-01T13:18:45.478Z,2.22
2022-10-01T13:21:32.381Z,2.20
2022-10-01T13:24:02.391Z,2.08
2022-10-01T13:26:41.529Z,2.25
2022-10-01T13:29:16.090Z,1.60
2022-10-01T13:32:03.094Z,1.30
2022-10-01T13:34:39.198Z,1.40
2022-10-01T13:37:15.345Z,1.50
2022-10-01T13:39:43.381Z,1.20
2022-10-01T13:42:20.940Z,1.30
2022-10-01T13:44:52.852Z,1.60
2022-10-01T13:47:20.480Z,1.30
2022-10-01T13:49:55.083Z,1.30
2022-10-01T13:52:23.010Z,1.30
2022-10-01T13:54:53.412Z,1.23
2022-10-01T13:57:29.821Z,1.20
2022-10-01T13:59:59.755Z,0.93
2022-10-01T14:02:29.800Z,1.00
2022-10-01T14:04:57.345Z,1.00
2022-10-01T14:07:28.506Z,1.10
2022-10-01T14:09:58.461Z,5.18
2022-10-01T14:12:50.019Z,3.93
2022-10-01T14:15:42.813Z,2.47
2022-10-01T14:18:15.237Z,1.80
2022-10-01T14:20:57.985Z,1.75
2022-10-01T14:23:29.445Z,2.47
2022-10-01T14:26:03.206Z,2.33
2022-10-01T14:28:30.583Z,1.80
2022-10-01T14:31:02.069Z,2.10
2022-10-01T14:33:37.805Z,1.60
2022-10-01T14:36:11.189Z,1.90
2022-10-01T14:38:38.277Z,1.80
2022-10-01T14:41:05.357Z,1.50
2022-10-01T14:43:33.033Z,1.30
2022-10-01T14:46:04.734Z,1.50
2022-10-01T14:48:33.508Z,1.88
2022-10-01T14:51:02.477Z,1.50
2022-10-01T14:53:31.609Z,1.20
2022-10-01T14:56:01.369Z,2.10
2022-10-01T14:58:30.829Z,1.85
2022-10-01T15:00:58.834Z,1.95
2022-10-01T15:03:26.105Z,1.70
2022-10-01T15:06:03.117Z,2.00
2022-10-01T15:08:39.383Z,1.40
2022-10-01T15:11:08.264Z,1.48
2022-10-01T15:13:39.864Z,1.50
2022-10-01T15:16:17.266Z,1.70
2022-10-01T15:19:04.327Z,2.33
2022-10-01T15:21:39.783Z,2.00
2022-10-01T15:24:08.188Z,2.45
2022-10-01T15:26:35.479Z,1.40
2022-10-01T15:29:18.122Z,1.70
2022-10-01T15:31:46.920Z,1.55
2022-10-01T15:34:15.350Z,1.67
2022-10-01T15:36:43.049Z,1.60
2022-10-01T15:39:22.395Z,1.35
2022-10-01T15:41:52.432Z,1.40
2022-10-01T15:44:40.954Z,2.05
2022-10-01T15:47:24.182Z,2.00
2022-10-01T15:50:11.208Z,2.10
2022-10-01T15:52:54.790Z,2.30
2022-10-01T15:55:23.530Z,2.58
2022-10-01T15:57:52.940Z,2.38
2022-10-01T16:00:22.633Z,2.17
2022-10-01T16:02:49.925Z,2.00
2022-10-01T16:05:19.090Z,2.55
2022-10-01T16:07:48.717Z,2.10
2022-10-01T16:10:28.774Z,1.80
2022-10-01T16:12:55.518Z,2.08
2022-10-01T16:15:26.105Z,3.05
2022-10-01T16:17:54.426Z,2.80
2022-10-01T16:20:38.255Z,2.55
2022-10-01T16:23:25.351Z,2.97
2022-10-01T16:25:52.401Z,3.10
2022-10-01T16:28:29.146Z,3.20
2022-10-01T16:30:56.430Z,4.00
2022-10-01T16:33:23.601Z,3.63
2022-10-01T16:35:50.753Z,6.20
2022-10-01T16:38:17.534Z,3.88
2022-10-01T16:40:47.935Z,2.90
2022-10-01T16:43:17.698Z,2.17
2022-10-01T16:45:44.914Z,2.50
2022-10-01T16:48:14.498Z,3.08
2022-10-01T16:50:42.230Z,2.75
2022-10-01T16:53:13.029Z,2.47
2022-10-01T16:55:40.238Z,2.22
2022-10-01T16:58:07.994Z,2.13
2022-10-01T17:00:37.129Z,2.10
2022-10-01T17:03:10.137Z,2.50
2022-10-01T17:05:39.262Z,1.77
2022-10-01T17:08:14.540Z,2.10
2022-10-01T17:10:46.214Z,3.40
2022-10-01T17:13:13.841Z,2.45
2022-10-01T17:15:41.069Z,1.95
2022-10-01T17:18:09.709Z,2.30
2022-10-01T17:20:38.218Z,2.40
2022-10-01T17:23:05.705Z,2.20
2022-10-01T17:25:35.606Z,1.80
2022-10-01T17:28:04.332Z,1.83
2022-10-01T17:30:32.748Z,2.20
2022-10-01T17:33:00.732Z,2.40
2022-10-01T17:35:28.466Z,2.50
2022-10-01T17:37:55.749Z,2.40
2022-10-01T17:40:23.196Z,1.85
2022-10-01T17:42:50.413Z,2.10
2022-10-01T17:45:17.306Z,1.88
2022-10-01T17:47:46.159Z,2.20
2022-10-01T17:50:13.756Z,2.20
2022-10-01T17:52:40.921Z,2.10
2022-10-01T17:55:08.300Z,2.13
2022-10-01T17:57:35.489Z,1.67
2022-10-01T18:00:03.421Z,1.90
2022-10-01T18:02:47.037Z,1.70
2022-10-01T18:05:15.027Z,1.60
2022-10-01T18:07:42.951Z,1.60
2022-10-01T18:10:11.817Z,1.83
2022-10-01T18:12:39.020Z,2.28
2022-10-01T18:15:06.414Z,2.50
2022-10-01T18:17:36.349Z,2.15
2022-10-01T18:20:06.297Z,3.05
2022-10-01T18:22:33.897Z,4.90
2022-10-01T18:25:01.135Z,4.80
2022-10-01T18:27:28.260Z,2.47
2022-10-01T18:29:55.504Z,1.88
2022-10-01T18:32:26.168Z,1.90
2022-10-01T18:34:57.855Z,1.65
2022-10-01T18:37:36.259Z,1.60
2022-10-01T18:40:28.989Z,2.20
2022-10-01T18:43:07.280Z,2.38
2022-10-01T18:45:37.708Z,2.10
2022-10-01T18:48:14.492Z,1.88
2022-10-01T18:50:53.193Z,2.03
2022-10-01T18:53:26.692Z,2.17
2022-10-01T18:56:14.473Z,2.33
2022-10-01T18:59:02.124Z,2.65
2022-10-01T19:01:32.354Z,2.20
2022-10-01T19:04:00.729Z,1.90
2022-10-01T19:06:27.876Z,2.00
2022-10-01T19:09:02.980Z,2.63
2022-10-01T19:11:33.039Z,2.00
2022-10-01T19:14:20.045Z,2.10
2022-10-01T19:16:56.172Z,2.00
2022-10-01T19:19:43.207Z,1.48
2022-10-01T19:22:17.303Z,1.90
2022-10-01T19:24:54.348Z,2.30
2022-10-01T19:27:21.532Z,2.20
2022-10-01T19:29:56.781Z,2.00
2022-10-01T19:32:27.308Z,1.80
2022-10-01T19:34:54.692Z,2.35
2022-10-01T19:37:22.808Z,1.90
2022-10-01T19:39:52.086Z,1.90
2022-10-01T19:42:25.236Z,2.10
2022-10-01T19:45:04.650Z,1.50
2022-10-01T19:47:35.322Z,1.80
2022-10-01T19:50:07.163Z,2.50
2022-10-01T19:52:38.235Z,2.60
2022-10-01T19:55:12.018Z,2.83
2022-10-01T19:57:41.803Z,2.55
2022-10-01T20:00:18.055Z,2.47
2022-10-01T20:02:45.827Z,2.35
2022-10-01T20:05:18.458Z,2.00
2022-10-01T20:07:48.122Z,2.28
2022-10-01T20:10:20.195Z,1.80
2022-10-01T20:12:47.736Z,1.95
2022-10-01T20:15:22.986Z,2.17
2022-10-01T20:17:58.578Z,1.80
2022-10-01T20:20:26.751Z,1.67
2022-10-01T20:22:57.774Z,1.42
2022-10-01T20:25:29.838Z,1.92
2022-10-01T20:27:57.014Z,1.50
2022-10-01T20:30:23.951Z,1.70
2022-10-01T20:33:07.199Z,1.55
2022-10-01T20:35:40.438Z,1.90
2022-10-01T20:38:27.778Z,1.80
2022-10-01T20:40:56.630Z,1.77
2022-10-01T20:43:49.224Z,1.70
2022-10-01T20:46:20.325Z,1.53
2022-10-01T20:48:50.273Z,1.77
2022-10-01T20:51:23.390Z,1.60
2022-10-01T20:54:06.906Z,2.00
2022-10-01T20:56:37.352Z,2.10
2022-10-01T20:59:04.730Z,1.90
2022-10-01T21:01:33.206Z,1.90
2022-10-01T21:04:12.092Z,1.60
2022-10-01T21:06:45.766Z,1.60
2022-10-01T21:09:20.357Z,2.25
2022-10-01T21:11:58.166Z,1.75
2022-10-01T21:14:27.221Z,1.87
2022-10-01T21:17:02.680Z,1.58
2022-10-01T21:19:37.230Z,1.67
2022-10-01T21:22:24.265Z,1.70
2022-10-01T21:25:11.304Z,1.73
2022-10-01T21:27:41.908Z,1.83
2022-10-01T21:30:14.845Z,1.60
2022-10-01T21:32:58.809Z,1.60
2022-10-01T21:35:29.764Z,1.95
2022-10-01T21:38:09.329Z,1.75
2022-10-01T21:40:39.764Z,1.67
2022-10-01T21:43:13.855Z,1.85
2022-10-01T21:46:00.900Z,1.55
2022-10-01T21:48:39.067Z,1.70
2022-10-01T21:51:26.289Z,1.55
2022-10-01T21:54:12.824Z,1.90
2022-10-01T21:56:39.870Z,1.52
2022-10-01T21:59:14.420Z,1.65
2022-10-01T22:02:04.755Z,1.73
2022-10-01T22:04:37.544Z,1.95
2022-10-01T22:07:23.755Z,1.70
2022-10-01T22:10:03.514Z,1.80
2022-10-01T22:12:31.335Z,2.10
2022-10-01T22:14:59.507Z,2.13
2022-10-01T22:17:30.012Z,2.40
2022-10-01T22:19:58.228Z,2.30
2022-10-01T22:22:30.540Z,2.70
2022-10-01T22:24:59.239Z,2.50
2022-10-01T22:27:32.064Z,2.40
2022-10-01T22:30:02.591Z,2.30
2022-10-01T22:32:32.038Z,2.30
2022-10-01T22:35:03.799Z,2.72
2022-10-01T22:37:37.430Z,3.08
2022-10-01T22:40:08.544Z,3.10
2022-10-01T22:42:37.823Z,2.90
2022-10-01T22:45:21.844Z,3.30
2022-10-01T22:47:48.966Z,2.67
2022-10-01T22:50:27.330Z,2.50
2022-10-01T22:53:03.746Z,3.42
2022-10-01T22:55:50.727Z,3.03
2022-10-01T22:58:48.895Z,3.33
2022-10-01T23:01:23.270Z,3.97
2022-10-01T23:04:10.501Z,3.45
2022-10-01T23:06:46.146Z,2.90
2022-10-01T23:09:19.211Z,2.90
2022-10-01T23:12:04.890Z,3.00
2022-10-01T23:14:38.397Z,2.85
2022-10-01T23:17:09.595Z,2.60
2022-10-01T23:19:36.646Z,2.60
2022-10-01T23:22:03.702Z,2.70
2022-10-01T23:24:31.265Z,2.47
2022-10-01T23:27:17.910Z,2.60
2022-10-01T23:30:03.633Z,2.72
2022-10-01T23:32:40.572Z,2.80
2022-10-01T23:35:17.977Z,3.00
2022-10-01T23:38:04.953Z,2.80
2022-10-01T23:40:34.505Z,2.60
2022-10-01T23:43:07.267Z,2.63
2022-10-01T23:45:45.328Z,2.53
2022-10-01T23:48:17.117Z,2.75
2022-10-01T23:51:04.078Z,2.65
2022-10-01T23:53:36.466Z,2.80
2022-10-01T23:56:25.772Z,2.70
2022-10-01T23:58:56.281Z,2.90
